sensor_id;sensor_type;location;lat;lon;timestamp;pressure;altitude;pressure_sealevel;temperature;humidity
71948;BME280;63257;55.082;38.772;2023-07-22T00:00:52;99230.69;;;13.80;74.58
71948;BME280;63257;55.082;38.772;2023-07-22T00:03:18;99235.41;;;13.77;74.81
71948;BME280;63257;55.082;38.772;2023-07-22T00:05:44;99221.53;;;13.73;74.52
71948;BME280;63257;55.082;38.772;2023-07-22T00:08:09;99208.38;;;13.60;74.96
71948;BME280;63257;55.082;38.772;2023-07-22T00:10:35;99227.91;;;13.70;75.11
71948;BME280;63257;55.082;38.772;2023-07-22T00:13:05;99229.09;;;13.66;75.00
71948;BME280;63257;55.082;38.772;2023-07-22T00:15:31;99222.97;;;13.66;75.33
71948;BME280;63257;55.082;38.772;2023-07-22T00:17:57;99231.03;;;13.64;75.42
71948;BME280;63257;55.082;38.772;2023-07-22T00:20:22;99227.03;;;13.58;75.68
71948;BME280;63257;55.082;38.772;2023-07-22T00:22:49;99225.72;;;13.53;75.97
71948;BME280;63257;55.082;38.772;2023-07-22T00:25:15;99235.72;;;13.61;75.39
71948;BME280;63257;55.082;38.772;2023-07-22T00:27:42;99230.28;;;13.51;75.47
71948;BME280;63257;55.082;38.772;2023-07-22T00:30:08;99227.78;;;13.49;75.98
71948;BME280;63257;55.082;38.772;2023-07-22T00:32:35;99237.50;;;13.49;75.60
71948;BME280;63257;55.082;38.772;2023-07-22T00:35:05;99248.63;;;13.54;76.20
71948;BME280;63257;55.082;38.772;2023-07-22T00:37:32;99237.75;;;13.46;75.89
71948;BME280;63257;55.082;38.772;2023-07-22T00:39:58;99247.41;;;13.47;76.35
71948;BME280;63257;55.082;38.772;2023-07-22T00:42:24;99239.31;;;13.37;76.63
71948;BME280;63257;55.082;38.772;2023-07-22T00:44:50;99240.34;;;13.34;76.47
71948;BME280;63257;55.082;38.772;2023-07-22T00:47:17;99259.06;;;13.44;77.05
71948;BME280;63257;55.082;38.772;2023-07-22T00:49:43;99243.75;;;13.36;76.91
71948;BME280;63257;55.082;38.772;2023-07-22T00:52:10;99242.13;;;13.34;77.04
71948;BME280;63257;55.082;38.772;2023-07-22T00:54:36;99264.00;;;13.37;76.76
71948;BME280;63257;55.082;38.772;2023-07-22T00:57:02;99271.72;;;13.40;77.06
71948;BME280;63257;55.082;38.772;2023-07-22T00:59:28;99263.03;;;13.38;76.94
71948;BME280;63257;55.082;38.772;2023-07-22T01:01:54;99245.97;;;13.30;77.43
71948;BME280;63257;55.082;38.772;2023-07-22T01:04:20;99272.41;;;13.31;77.41
71948;BME280;63257;55.082;38.772;2023-07-22T01:06:49;99273.22;;;13.32;77.75
71948;BME280;63257;55.082;38.772;2023-07-22T01:09:15;99271.66;;;13.29;77.59
71948;BME280;63257;55.082;38.772;2023-07-22T01:11:40;99268.72;;;13.21;78.13
71948;BME280;63257;55.082;38.772;2023-07-22T01:14:07;99280.78;;;13.25;78.26
71948;BME280;63257;55.082;38.772;2023-07-22T01:16:33;99273.78;;;13.24;78.42
71948;BME280;63257;55.082;38.772;2023-07-22T01:19:00;99281.88;;;13.22;78.84
71948;BME280;63257;55.082;38.772;2023-07-22T01:21:26;99277.03;;;13.16;78.99
71948;BME280;63257;55.082;38.772;2023-07-22T01:23:53;99271.00;;;13.14;79.02
71948;BME280;63257;55.082;38.772;2023-07-22T01:26:19;99272.06;;;13.12;79.06
71948;BME280;63257;55.082;38.772;2023-07-22T01:28:45;99263.00;;;13.03;79.42
71948;BME280;63257;55.082;38.772;2023-07-22T01:31:11;99289.31;;;13.17;79.80
71948;BME280;63257;55.082;38.772;2023-07-22T01:33:37;99287.53;;;13.18;79.53
71948;BME280;63257;55.082;38.772;2023-07-22T01:36:03;99283.53;;;13.12;79.98
71948;BME280;63257;55.082;38.772;2023-07-22T01:38:29;99295.59;;;13.16;79.97
71948;BME280;63257;55.082;38.772;2023-07-22T01:40:56;99295.72;;;13.15;80.03
71948;BME280;63257;55.082;38.772;2023-07-22T01:43:22;99307.66;;;13.20;79.94
71948;BME280;63257;55.082;38.772;2023-07-22T01:45:48;99296.66;;;13.14;79.57
71948;BME280;63257;55.082;38.772;2023-07-22T01:48:14;99300.66;;;13.19;79.50
71948;BME280;63257;55.082;38.772;2023-07-22T01:50:40;99300.28;;;13.24;79.50
71948;BME280;63257;55.082;38.772;2023-07-22T01:53:06;99302.50;;;13.30;79.54
71948;BME280;63257;55.082;38.772;2023-07-22T01:55:32;99287.03;;;13.24;79.52
71948;BME280;63257;55.082;38.772;2023-07-22T01:57:58;99303.09;;;13.34;79.30
71948;BME280;63257;55.082;38.772;2023-07-22T02:00:24;99297.50;;;13.38;79.13
71948;BME280;63257;55.082;38.772;2023-07-22T02:02:50;99289.38;;;13.29;79.05
71948;BME280;63257;55.082;38.772;2023-07-22T02:05:16;99309.56;;;13.43;78.95
71948;BME280;63257;55.082;38.772;2023-07-22T02:07:42;99297.50;;;13.38;78.41
71948;BME280;63257;55.082;38.772;2023-07-22T02:10:08;99314.38;;;13.49;78.73
71948;BME280;63257;55.082;38.772;2023-07-22T02:12:37;99311.53;;;13.52;78.52
71948;BME280;63257;55.082;38.772;2023-07-22T02:15:04;99315.84;;;13.53;78.69
71948;BME280;63257;55.082;38.772;2023-07-22T02:17:36;99300.53;;;13.45;78.60
71948;BME280;63257;55.082;38.772;2023-07-22T02:20:22;99307.78;;;13.54;78.57
71948;BME280;63257;55.082;38.772;2023-07-22T02:22:48;99311.28;;;13.55;78.66
71948;BME280;63257;55.082;38.772;2023-07-22T02:25:13;99307.69;;;13.56;79.00
71948;BME280;63257;55.082;38.772;2023-07-22T02:27:41;99316.97;;;13.62;78.74
71948;BME280;63257;55.082;38.772;2023-07-22T02:30:07;99303.22;;;13.56;78.73
71948;BME280;63257;55.082;38.772;2023-07-22T02:32:38;99327.22;;;13.66;78.25
71948;BME280;63257;55.082;38.772;2023-07-22T02:35:09;99308.03;;;13.63;78.36
71948;BME280;63257;55.082;38.772;2023-07-22T02:37:37;99330.25;;;13.73;78.30
71948;BME280;63257;55.082;38.772;2023-07-22T02:40:03;99329.19;;;13.76;78.64
71948;BME280;63257;55.082;38.772;2023-07-22T02:42:35;99313.50;;;13.72;78.53
71948;BME280;63257;55.082;38.772;2023-07-22T02:45:02;99319.91;;;13.81;78.37
71948;BME280;63257;55.082;38.772;2023-07-22T02:47:34;99324.84;;;13.86;78.33
71948;BME280;63257;55.082;38.772;2023-07-22T02:50:01;99324.63;;;13.89;77.89
71948;BME280;63257;55.082;38.772;2023-07-22T02:52:29;99315.34;;;13.95;77.64
71948;BME280;63257;55.082;38.772;2023-07-22T02:55:13;99316.44;;;13.92;77.69
71948;BME280;63257;55.082;38.772;2023-07-22T02:57:40;99337.53;;;14.05;77.49
71948;BME280;63257;55.082;38.772;2023-07-22T03:00:07;99325.72;;;14.09;77.94
71948;BME280;63257;55.082;38.772;2023-07-22T03:02:34;99335.13;;;14.13;77.63
71948;BME280;63257;55.082;38.772;2023-07-22T03:05:00;99331.28;;;14.17;77.49
71948;BME280;63257;55.082;38.772;2023-07-22T03:07:30;99330.94;;;14.22;77.57
71948;BME280;63257;55.082;38.772;2023-07-22T03:09:55;99311.88;;;14.17;77.76
71948;BME280;63257;55.082;38.772;2023-07-22T03:12:21;99330.19;;;14.31;77.22
71948;BME280;63257;55.082;38.772;2023-07-22T03:14:48;99317.28;;;14.27;77.15
71948;BME280;63257;55.082;38.772;2023-07-22T03:17:14;99326.94;;;14.39;77.06
71948;BME280;63257;55.082;38.772;2023-07-22T03:19:42;99339.00;;;14.43;77.22
71948;BME280;63257;55.082;38.772;2023-07-22T03:22:08;99333.19;;;14.49;77.21
71948;BME280;63257;55.082;38.772;2023-07-22T03:24:35;99301.22;;;14.39;77.01
71948;BME280;63257;55.082;38.772;2023-07-22T03:27:01;99324.03;;;14.53;76.69
71948;BME280;63257;55.082;38.772;2023-07-22T03:29:27;99335.38;;;14.67;76.68
71948;BME280;63257;55.082;38.772;2023-07-22T03:31:53;99328.72;;;14.72;76.15
71948;BME280;63257;55.082;38.772;2023-07-22T03:34:19;99327.41;;;14.78;75.79
71948;BME280;63257;55.082;38.772;2023-07-22T03:36:45;99327.75;;;14.85;75.30
71948;BME280;63257;55.082;38.772;2023-07-22T03:39:12;99317.25;;;14.83;75.13
71948;BME280;63257;55.082;38.772;2023-07-22T03:41:37;99337.38;;;14.97;75.11
71948;BME280;63257;55.082;38.772;2023-07-22T03:44:03;99345.56;;;15.05;74.69
71948;BME280;63257;55.082;38.772;2023-07-22T03:46:29;99340.59;;;15.12;74.24
71948;BME280;63257;55.082;38.772;2023-07-22T03:48:55;99343.72;;;15.17;74.32
71948;BME280;63257;55.082;38.772;2023-07-22T03:51:20;99332.38;;;15.15;73.82
71948;BME280;63257;55.082;38.772;2023-07-22T03:53:47;99347.31;;;15.27;73.62
71948;BME280;63257;55.082;38.772;2023-07-22T03:56:13;99351.03;;;15.36;73.40
71948;BME280;63257;55.082;38.772;2023-07-22T03:58:38;99330.84;;;15.34;73.42
71948;BME280;63257;55.082;38.772;2023-07-22T04:01:04;99343.84;;;15.48;73.34
71948;BME280;63257;55.082;38.772;2023-07-22T04:03:30;99338.16;;;15.53;72.54
71948;BME280;63257;55.082;38.772;2023-07-22T04:05:56;99342.13;;;15.58;73.12
71948;BME280;63257;55.082;38.772;2023-07-22T04:08:22;99340.63;;;15.66;73.04
71948;BME280;63257;55.082;38.772;2023-07-22T04:10:55;99327.91;;;15.69;73.20
71948;BME280;63257;55.082;38.772;2023-07-22T04:13:25;99332.69;;;15.75;72.82
71948;BME280;63257;55.082;38.772;2023-07-22T04:15:52;99344.03;;;15.89;72.84
71948;BME280;63257;55.082;38.772;2023-07-22T04:18:19;99331.25;;;15.83;72.41
71948;BME280;63257;55.082;38.772;2023-07-22T04:20:46;99339.03;;;15.96;72.32
71948;BME280;63257;55.082;38.772;2023-07-22T04:23:14;99336.22;;;15.97;72.19
71948;BME280;63257;55.082;38.772;2023-07-22T04:25:40;99349.72;;;16.05;71.35
71948;BME280;63257;55.082;38.772;2023-07-22T04:28:06;99357.31;;;16.10;71.56
71948;BME280;63257;55.082;38.772;2023-07-22T04:30:37;99353.84;;;16.19;72.17
71948;BME280;63257;55.082;38.772;2023-07-22T04:33:03;99341.78;;;16.15;71.70
71948;BME280;63257;55.082;38.772;2023-07-22T04:35:37;99355.16;;;16.25;71.65
71948;BME280;63257;55.082;38.772;2023-07-22T04:38:03;99329.56;;;16.13;70.77
71948;BME280;63257;55.082;38.772;2023-07-22T04:40:29;99351.81;;;16.33;70.92
71948;BME280;63257;55.082;38.772;2023-07-22T04:42:56;99349.44;;;16.30;71.53
71948;BME280;63257;55.082;38.772;2023-07-22T04:45:22;99374.44;;;16.48;71.82
71948;BME280;63257;55.082;38.772;2023-07-22T04:47:51;99377.72;;;16.52;70.78
71948;BME280;63257;55.082;38.772;2023-07-22T04:50:18;99372.09;;;16.55;70.39
71948;BME280;63257;55.082;38.772;2023-07-22T04:52:47;99364.94;;;16.55;70.69
71948;BME280;63257;55.082;38.772;2023-07-22T04:55:14;99361.16;;;16.58;70.65
71948;BME280;63257;55.082;38.772;2023-07-22T04:57:41;99358.28;;;16.71;70.97
71948;BME280;63257;55.082;38.772;2023-07-22T05:00:08;99371.06;;;16.77;70.83
71948;BME280;63257;55.082;38.772;2023-07-22T05:02:40;99374.75;;;16.86;70.34
71948;BME280;63257;55.082;38.772;2023-07-22T05:05:07;99372.78;;;16.88;70.04
71948;BME280;63257;55.082;38.772;2023-07-22T05:07:33;99369.03;;;16.90;70.58
71948;BME280;63257;55.082;38.772;2023-07-22T05:09:58;99377.72;;;16.92;70.04
71948;BME280;63257;55.082;38.772;2023-07-22T05:12:24;99354.00;;;16.89;69.61
71948;BME280;63257;55.082;38.772;2023-07-22T05:14:51;99371.13;;;16.96;69.27
71948;BME280;63257;55.082;38.772;2023-07-22T05:17:16;99371.44;;;17.03;69.47
71948;BME280;63257;55.082;38.772;2023-07-22T05:19:43;99372.59;;;17.10;70.05
71948;BME280;63257;55.082;38.772;2023-07-22T05:22:08;99370.31;;;17.16;68.56
71948;BME280;63257;55.082;38.772;2023-07-22T05:24:34;99373.44;;;17.21;68.08
71948;BME280;63257;55.082;38.772;2023-07-22T05:27:00;99371.75;;;17.29;68.16
71948;BME280;63257;55.082;38.772;2023-07-22T05:29:26;99359.13;;;17.32;67.91
71948;BME280;63257;55.082;38.772;2023-07-22T05:31:51;99365.88;;;17.45;67.43
71948;BME280;63257;55.082;38.772;2023-07-22T05:34:17;99353.09;;;17.39;67.09
71948;BME280;63257;55.082;38.772;2023-07-22T05:36:43;99381.44;;;17.50;66.90
71948;BME280;63257;55.082;38.772;2023-07-22T05:39:09;99366.44;;;17.49;65.72
71948;BME280;63257;55.082;38.772;2023-07-22T05:41:35;99364.16;;;17.54;66.53
71948;BME280;63257;55.082;38.772;2023-07-22T05:44:01;99366.97;;;17.62;66.34
71948;BME280;63257;55.082;38.772;2023-07-22T05:46:27;99372.88;;;17.66;65.51
71948;BME280;63257;55.082;38.772;2023-07-22T05:48:53;99383.00;;;17.72;64.82
71948;BME280;63257;55.082;38.772;2023-07-22T05:51:18;99367.69;;;17.74;64.33
71948;BME280;63257;55.082;38.772;2023-07-22T05:53:44;99367.81;;;17.83;64.05
71948;BME280;63257;55.082;38.772;2023-07-22T05:56:10;99348.84;;;17.86;64.68
71948;BME280;63257;55.082;38.772;2023-07-22T05:58:36;99366.13;;;18.01;64.51
71948;BME280;63257;55.082;38.772;2023-07-22T06:01:02;99355.31;;;18.03;63.84
71948;BME280;63257;55.082;38.772;2023-07-22T06:03:28;99359.75;;;18.12;63.52
71948;BME280;63257;55.082;38.772;2023-07-22T06:05:54;99372.97;;;18.23;63.39
71948;BME280;63257;55.082;38.772;2023-07-22T06:08:19;99362.09;;;18.35;62.64
71948;BME280;63257;55.082;38.772;2023-07-22T06:10:45;99365.28;;;18.48;61.89
71948;BME280;63257;55.082;38.772;2023-07-22T06:13:11;99357.66;;;18.53;61.87
71948;BME280;63257;55.082;38.772;2023-07-22T06:15:37;99359.59;;;18.61;61.43
71948;BME280;63257;55.082;38.772;2023-07-22T06:18:03;99367.72;;;18.69;61.23
71948;BME280;63257;55.082;38.772;2023-07-22T06:20:29;99376.13;;;18.74;61.35
71948;BME280;63257;55.082;38.772;2023-07-22T06:22:55;99376.28;;;18.73;59.61
71948;BME280;63257;55.082;38.772;2023-07-22T06:25:21;99364.75;;;18.72;59.94
71948;BME280;63257;55.082;38.772;2023-07-22T06:27:47;99370.03;;;18.82;58.97
71948;BME280;63257;55.082;38.772;2023-07-22T06:30:12;99372.28;;;18.87;59.30
71948;BME280;63257;55.082;38.772;2023-07-22T06:32:39;99370.31;;;18.89;58.44
71948;BME280;63257;55.082;38.772;2023-07-22T06:35:05;99349.81;;;18.79;58.01
71948;BME280;63257;55.082;38.772;2023-07-22T06:37:31;99358.19;;;18.85;59.02
71948;BME280;63257;55.082;38.772;2023-07-22T06:39:57;99367.72;;;18.97;57.69
71948;BME280;63257;55.082;38.772;2023-07-22T06:42:23;99368.44;;;18.99;57.64
71948;BME280;63257;55.082;38.772;2023-07-22T06:44:49;99357.28;;;19.04;57.70
71948;BME280;63257;55.082;38.772;2023-07-22T06:47:15;99370.75;;;19.12;57.69
71948;BME280;63257;55.082;38.772;2023-07-22T06:49:41;99367.31;;;19.20;57.34
71948;BME280;63257;55.082;38.772;2023-07-22T06:52:08;99358.97;;;19.23;56.97
71948;BME280;63257;55.082;38.772;2023-07-22T06:54:35;99357.38;;;19.30;55.74
71948;BME280;63257;55.082;38.772;2023-07-22T06:57:01;99349.50;;;19.28;56.56
71948;BME280;63257;55.082;38.772;2023-07-22T06:59:27;99350.28;;;19.39;55.76
71948;BME280;63257;55.082;38.772;2023-07-22T07:01:52;99344.47;;;19.43;56.56
71948;BME280;63257;55.082;38.772;2023-07-22T07:04:18;99360.28;;;19.55;56.80
71948;BME280;63257;55.082;38.772;2023-07-22T07:06:44;99356.94;;;19.53;55.62
71948;BME280;63257;55.082;38.772;2023-07-22T07:09:11;99351.66;;;19.61;56.15
71948;BME280;63257;55.082;38.772;2023-07-22T07:11:37;99356.38;;;19.67;55.59
71948;BME280;63257;55.082;38.772;2023-07-22T07:14:03;99364.63;;;19.74;53.98
71948;BME280;63257;55.082;38.772;2023-07-22T07:16:31;99357.44;;;19.74;54.58
71948;BME280;63257;55.082;38.772;2023-07-22T07:18:58;99357.13;;;19.77;54.09
71948;BME280;63257;55.082;38.772;2023-07-22T07:21:24;99349.03;;;19.87;54.68
71948;BME280;63257;55.082;38.772;2023-07-22T07:23:51;99355.59;;;19.93;52.25
71948;BME280;63257;55.082;38.772;2023-07-22T07:26:17;99350.56;;;19.90;52.11
71948;BME280;63257;55.082;38.772;2023-07-22T07:28:44;99360.69;;;20.04;52.65
71948;BME280;63257;55.082;38.772;2023-07-22T07:31:10;99358.69;;;20.06;51.18
71948;BME280;63257;55.082;38.772;2023-07-22T07:33:36;99360.91;;;20.11;49.85
71948;BME280;63257;55.082;38.772;2023-07-22T07:36:02;99361.59;;;20.13;49.97
71948;BME280;63257;55.082;38.772;2023-07-22T07:38:29;99359.69;;;20.05;49.16
71948;BME280;63257;55.082;38.772;2023-07-22T07:41:03;99337.28;;;20.06;50.53
71948;BME280;63257;55.082;38.772;2023-07-22T07:43:29;99366.16;;;20.21;51.39
71948;BME280;63257;55.082;38.772;2023-07-22T07:48:52;99351.31;;;20.34;49.41
71948;BME280;63257;55.082;38.772;2023-07-22T07:51:20;99362.28;;;20.49;49.84
71948;BME280;63257;55.082;38.772;2023-07-22T07:53:47;99370.69;;;20.55;48.51
71948;BME280;63257;55.082;38.772;2023-07-22T07:56:14;99348.59;;;20.53;48.15
71948;BME280;63257;55.082;38.772;2023-07-22T07:58:40;99360.09;;;20.79;49.14
71948;BME280;63257;55.082;38.772;2023-07-22T08:01:06;99372.53;;;20.89;48.17
71948;BME280;63257;55.082;38.772;2023-07-22T08:03:33;99352.06;;;20.79;48.07
71948;BME280;63257;55.082;38.772;2023-07-22T08:06:01;99348.75;;;20.86;47.39
71948;BME280;63257;55.082;38.772;2023-07-22T08:08:27;99362.53;;;21.07;47.60
71948;BME280;63257;55.082;38.772;2023-07-22T08:11:29;99368.06;;;21.14;47.11
71948;BME280;63257;55.082;38.772;2023-07-22T08:13:54;99361.53;;;21.08;47.48
71948;BME280;63257;55.082;38.772;2023-07-22T08:16:21;99351.81;;;21.15;48.06
71948;BME280;63257;55.082;38.772;2023-07-22T08:18:46;99349.47;;;21.12;46.38
71948;BME280;63257;55.082;38.772;2023-07-22T08:21:12;99353.00;;;21.29;46.18
71948;BME280;63257;55.082;38.772;2023-07-22T08:23:38;99357.22;;;21.40;45.60
71948;BME280;63257;55.082;38.772;2023-07-22T08:26:04;99368.00;;;21.57;45.00
71948;BME280;63257;55.082;38.772;2023-07-22T08:28:33;99356.25;;;21.66;45.06
71948;BME280;63257;55.082;38.772;2023-07-22T08:30:59;99364.13;;;21.76;44.64
71948;BME280;63257;55.082;38.772;2023-07-22T08:33:26;99363.66;;;21.64;44.96
71948;BME280;63257;55.082;38.772;2023-07-22T08:35:52;99360.13;;;21.80;45.28
71948;BME280;63257;55.082;38.772;2023-07-22T08:38:18;99367.00;;;21.91;45.13
71948;BME280;63257;55.082;38.772;2023-07-22T08:40:43;99352.72;;;21.98;46.09
71948;BME280;63257;55.082;38.772;2023-07-22T08:43:11;99365.28;;;21.98;46.08
71948;BME280;63257;55.082;38.772;2023-07-22T08:45:38;99350.88;;;21.58;45.50
71948;BME280;63257;55.082;38.772;2023-07-22T08:48:08;99366.00;;;21.59;46.86
71948;BME280;63257;55.082;38.772;2023-07-22T08:53:39;99373.66;;;21.45;46.46
71948;BME280;63257;55.082;38.772;2023-07-22T08:56:06;99345.88;;;21.63;45.94
71948;BME280;63257;55.082;38.772;2023-07-22T08:58:32;99366.66;;;21.94;45.42
71948;BME280;63257;55.082;38.772;2023-07-22T09:01:02;99360.44;;;21.93;45.42
71948;BME280;63257;55.082;38.772;2023-07-22T09:03:28;99360.97;;;21.89;44.98
71948;BME280;63257;55.082;38.772;2023-07-22T09:05:54;99362.47;;;21.66;45.53
71948;BME280;63257;55.082;38.772;2023-07-22T09:08:20;99359.78;;;21.58;45.48
71948;BME280;63257;55.082;38.772;2023-07-22T09:10:46;99364.50;;;21.73;45.91
71948;BME280;63257;55.082;38.772;2023-07-22T09:13:13;99353.56;;;21.66;45.34
71948;BME280;63257;55.082;38.772;2023-07-22T09:15:40;99349.66;;;22.10;45.41
71948;BME280;63257;55.082;38.772;2023-07-22T09:18:06;99337.72;;;22.29;44.65
71948;BME280;63257;55.082;38.772;2023-07-22T09:20:32;99337.75;;;22.12;43.40
71948;BME280;63257;55.082;38.772;2023-07-22T09:23:00;99348.66;;;22.11;43.49
71948;BME280;63257;55.082;38.772;2023-07-22T09:25:28;99359.75;;;22.08;44.22
71948;BME280;63257;55.082;38.772;2023-07-22T09:27:59;99360.94;;;22.05;44.37
71948;BME280;63257;55.082;38.772;2023-07-22T09:30:39;99332.69;;;22.17;44.07
71948;BME280;63257;55.082;38.772;2023-07-22T09:33:20;99337.47;;;22.55;43.60
71948;BME280;63257;55.082;38.772;2023-07-22T09:35:48;99325.13;;;22.69;41.71
71948;BME280;63257;55.082;38.772;2023-07-22T09:38:22;99328.78;;;23.08;41.89
71948;BME280;63257;55.082;38.772;2023-07-22T09:40:48;99345.28;;;23.36;41.34
71948;BME280;63257;55.082;38.772;2023-07-22T09:43:14;99352.50;;;22.81;40.61
71948;BME280;63257;55.082;38.772;2023-07-22T09:45:40;99342.03;;;22.86;41.17
71948;BME280;63257;55.082;38.772;2023-07-22T09:48:08;99347.69;;;22.99;41.75
71948;BME280;63257;55.082;38.772;2023-07-22T09:50:36;99339.09;;;23.04;41.28
71948;BME280;63257;55.082;38.772;2023-07-22T09:53:02;99333.69;;;23.12;41.19
71948;BME280;63257;55.082;38.772;2023-07-22T09:55:30;99332.81;;;23.12;39.38
71948;BME280;63257;55.082;38.772;2023-07-22T09:58:02;99351.16;;;23.16;40.08
71948;BME280;63257;55.082;38.772;2023-07-22T10:00:29;99332.34;;;23.08;40.97
71948;BME280;63257;55.082;38.772;2023-07-22T10:02:57;99347.38;;;23.26;40.61
71948;BME280;63257;55.082;38.772;2023-07-22T10:05:24;99347.50;;;23.01;40.46
71948;BME280;63257;55.082;38.772;2023-07-22T10:07:53;99352.94;;;23.24;40.41
71948;BME280;63257;55.082;38.772;2023-07-22T10:10:22;99357.06;;;23.03;40.14
71948;BME280;63257;55.082;38.772;2023-07-22T10:12:49;99351.81;;;23.10;40.34
71948;BME280;63257;55.082;38.772;2023-07-22T10:15:16;99351.06;;;23.33;40.04
71948;BME280;63257;55.082;38.772;2023-07-22T10:17:44;99330.56;;;22.92;41.08
71948;BME280;63257;55.082;38.772;2023-07-22T10:20:13;99369.06;;;22.93;40.88
71948;BME280;63257;55.082;38.772;2023-07-22T10:22:46;99374.59;;;22.99;41.08
71948;BME280;63257;55.082;38.772;2023-07-22T10:25:15;99348.88;;;22.97;41.41
71948;BME280;63257;55.082;38.772;2023-07-22T10:27:41;99383.34;;;23.01;40.99
71948;BME280;63257;55.082;38.772;2023-07-22T10:30:12;99374.88;;;23.13;41.26
71948;BME280;63257;55.082;38.772;2023-07-22T10:32:39;99384.59;;;23.22;40.58
71948;BME280;63257;55.082;38.772;2023-07-22T10:35:11;99353.78;;;23.48;39.66
71948;BME280;63257;55.082;38.772;2023-07-22T10:37:38;99350.94;;;23.64;40.28
71948;BME280;63257;55.082;38.772;2023-07-22T10:40:24;99365.53;;;23.93;39.08
71948;BME280;63257;55.082;38.772;2023-07-22T10:43:03;99368.53;;;23.75;39.82
71948;BME280;63257;55.082;38.772;2023-07-22T10:45:34;99360.00;;;23.48;39.83
71948;BME280;63257;55.082;38.772;2023-07-22T10:48:09;99366.72;;;23.52;40.53
71948;BME280;63257;55.082;38.772;2023-07-22T10:53:09;99374.84;;;23.44;39.76
71948;BME280;63257;55.082;38.772;2023-07-22T11:01:34;99364.94;;;23.83;39.27
71948;BME280;63257;55.082;38.772;2023-07-22T11:06:38;99359.28;;;23.54;39.40
71948;BME280;63257;55.082;38.772;2023-07-22T11:09:04;99366.25;;;23.87;39.74
71948;BME280;63257;55.082;38.772;2023-07-22T11:11:38;99366.16;;;23.80;40.21
71948;BME280;63257;55.082;38.772;2023-07-22T11:16:42;99363.03;;;23.68;40.24
71948;BME280;63257;55.082;38.772;2023-07-22T11:19:08;99361.94;;;24.01;40.42
71948;BME280;63257;55.082;38.772;2023-07-22T11:21:34;99365.31;;;24.93;39.30
71948;BME280;63257;55.082;38.772;2023-07-22T11:23:59;99374.56;;;24.68;39.02
71948;BME280;63257;55.082;38.772;2023-07-22T11:26:25;99382.09;;;24.73;38.61
71948;BME280;63257;55.082;38.772;2023-07-22T11:28:51;99376.28;;;25.06;37.81
71948;BME280;63257;55.082;38.772;2023-07-22T11:31:18;99382.09;;;24.73;38.55
71948;BME280;63257;55.082;38.772;2023-07-22T11:33:44;99380.22;;;24.59;38.73
71948;BME280;63257;55.082;38.772;2023-07-22T11:36:12;99379.34;;;25.03;37.90
71948;BME280;63257;55.082;38.772;2023-07-22T11:38:39;99378.03;;;25.50;38.04
71948;BME280;63257;55.082;38.772;2023-07-22T11:41:05;99374.78;;;25.62;36.15
71948;BME280;63257;55.082;38.772;2023-07-22T11:43:31;99360.06;;;25.86;36.08
71948;BME280;63257;55.082;38.772;2023-07-22T11:45:57;99387.38;;;25.98;35.59
71948;BME280;63257;55.082;38.772;2023-07-22T11:48:23;99375.56;;;25.77;34.43
71948;BME280;63257;55.082;38.772;2023-07-22T11:50:49;99346.44;;;25.51;34.49
71948;BME280;63257;55.082;38.772;2023-07-22T11:53:15;99368.78;;;25.66;35.13
71948;BME280;63257;55.082;38.772;2023-07-22T11:55:40;99368.63;;;25.68;34.92
71948;BME280;63257;55.082;38.772;2023-07-22T11:58:06;99362.97;;;25.26;36.10
71948;BME280;63257;55.082;38.772;2023-07-22T12:00:33;99357.28;;;25.36;36.02
71948;BME280;63257;55.082;38.772;2023-07-22T12:03:05;99341.78;;;25.66;34.39
71948;BME280;63257;55.082;38.772;2023-07-22T12:05:35;99361.28;;;25.83;34.29
71948;BME280;63257;55.082;38.772;2023-07-22T12:08:03;99353.84;;;25.92;34.14
71948;BME280;63257;55.082;38.772;2023-07-22T12:10:29;99359.28;;;26.20;33.73
71948;BME280;63257;55.082;38.772;2023-07-22T12:13:00;99358.13;;;26.36;33.86
71948;BME280;63257;55.082;38.772;2023-07-22T12:15:26;99375.72;;;26.19;33.84
71948;BME280;63257;55.082;38.772;2023-07-22T12:17:58;99340.50;;;26.47;33.60
71948;BME280;63257;55.082;38.772;2023-07-22T12:20:34;99343.06;;;26.20;33.10
71948;BME280;63257;55.082;38.772;2023-07-22T12:23:02;99330.09;;;26.09;32.91
71948;BME280;63257;55.082;38.772;2023-07-22T12:25:28;99337.91;;;26.26;33.24
71948;BME280;63257;55.082;38.772;2023-07-22T12:27:55;99336.28;;;26.73;31.26
71948;BME280;63257;55.082;38.772;2023-07-22T12:30:21;99324.91;;;26.14;31.94
71948;BME280;63257;55.082;38.772;2023-07-22T12:32:47;99343.44;;;25.89;33.20
71948;BME280;63257;55.082;38.772;2023-07-22T12:35:13;99360.94;;;26.56;33.18
71948;BME280;63257;55.082;38.772;2023-07-22T12:37:39;99341.63;;;27.08;32.44
71948;BME280;63257;55.082;38.772;2023-07-22T12:40:05;99336.69;;;26.70;31.22
71948;BME280;63257;55.082;38.772;2023-07-22T12:42:37;99347.41;;;27.05;31.28
71948;BME280;63257;55.082;38.772;2023-07-22T12:45:06;99354.94;;;27.09;31.37
71948;BME280;63257;55.082;38.772;2023-07-22T12:47:33;99350.66;;;26.80;31.17
71948;BME280;63257;55.082;38.772;2023-07-22T12:49:59;99342.06;;;27.32;31.64
71948;BME280;63257;55.082;38.772;2023-07-22T12:52:25;99372.09;;;27.30;30.67
71948;BME280;63257;55.082;38.772;2023-07-22T12:54:50;99350.28;;;27.72;30.39
71948;BME280;63257;55.082;38.772;2023-07-22T12:57:16;99333.38;;;28.10;29.34
71948;BME280;63257;55.082;38.772;2023-07-22T12:59:42;99326.50;;;28.14;29.79
71948;BME280;63257;55.082;38.772;2023-07-22T13:02:08;99346.72;;;27.58;29.18
71948;BME280;63257;55.082;38.772;2023-07-22T13:04:33;99338.38;;;28.00;29.27
71948;BME280;63257;55.082;38.772;2023-07-22T13:06:59;99331.28;;;27.92;28.67
71948;BME280;63257;55.082;38.772;2023-07-22T13:09:25;99335.25;;;27.56;29.76